createdAt,value
2016-11-17T00:00:28.423Z,0
2016-11-17T00:01:28.440Z,0
2016-11-17T00:02:27.878Z,0
2016-11-17T00:03:28.167Z,0
2016-11-17T00:04:27.872Z,0
2016-11-17T00:05:28.203Z,0
2016-11-17T00:06:28.542Z,0
2016-11-17T00:07:28.247Z,0
2016-11-17T00:08:27.971Z,0
2016-11-17T00:09:28.293Z,0
2016-11-17T00:10:27.999Z,0
2016-11-17T00:11:28.344Z,0
2016-11-17T00:12:28.339Z,0
2016-11-17T00:13:28.043Z,0
2016-11-17T00:14:28.089Z,0
2016-11-17T00:15:28.399Z,0
2016-11-17T00:16:28.738Z,0
2016-11-17T00:17:28.441Z,0
2016-11-17T00:18:28.461Z,0
2016-11-17T00:19:28.482Z,0
2016-11-17T00:20:28.820Z,0
2016-11-17T00:21:28.520Z,0
2016-11-17T00:22:29.223Z,0
2016-11-17T00:23:28.615Z,0
2016-11-17T00:24:28.888Z,0
2016-11-17T00:25:28.927Z,0
2016-11-17T00:26:28.941Z,0
2016-11-17T00:27:28.646Z,0
2016-11-17T00:28:28.699Z,0
2016-11-17T00:29:28.684Z,0
2016-11-17T00:30:29.010Z,0
2016-11-17T00:31:28.712Z,0
2016-11-17T00:32:28.785Z,0
2016-11-17T00:33:29.089Z,0
2016-11-17T00:34:28.460Z,0
2016-11-17T00:35:28.803Z,0
2016-11-17T00:36:28.809Z,0
2016-11-17T00:37:29.469Z,0
2016-11-17T00:38:29.483Z,0
2016-11-17T00:39:28.873Z,0
2016-11-17T00:40:29.215Z,0
2016-11-17T00:41:28.595Z,0
2016-11-17T00:42:29.248Z,0
2016-11-17T00:43:29.584Z,0
2016-11-17T00:44:29.304Z,0
2016-11-17T00:45:28.988Z,0
2016-11-17T00:46:29.634Z,0
2016-11-17T00:47:28.716Z,0
2016-11-17T00:48:29.355Z,0
2016-11-17T00:49:29.071Z,0
2016-11-17T00:50:29.099Z,0
2016-11-17T00:51:29.109Z,0
2016-11-17T00:52:29.761Z,0
2016-11-17T00:53:29.150Z,0
2016-11-17T00:54:29.171Z,0
2016-11-17T00:55:28.879Z,0
2016-11-17T00:56:29.207Z,0
2016-11-17T00:57:29.228Z,0
2016-11-17T00:58:29.243Z,0
2016-11-17T00:59:29.588Z,0
2016-11-17T01:00:29.606Z,0
2016-11-17T01:01:29.618Z,0
2016-11-17T01:02:29.323Z,0
2016-11-17T01:03:29.661Z,0
2016-11-17T01:04:29.365Z,0
2016-11-17T01:05:29.696Z,0
2016-11-17T01:06:29.082Z,0
2016-11-17T01:07:29.745Z,0
2016-11-17T01:08:29.443Z,0
2016-11-17T01:09:29.791Z,0
2016-11-17T01:10:29.795Z,0
2016-11-17T01:11:29.502Z,0
2016-11-17T01:12:29.840Z,0
2016-11-17T01:13:29.539Z,0
2016-11-17T01:14:29.560Z,0
2016-11-17T01:15:29.578Z,0
2016-11-17T01:16:30.231Z,0
2016-11-17T01:17:29.321Z,0
2016-11-17T01:18:29.954Z,0
2016-11-17T01:19:29.655Z,0
2016-11-17T01:20:29.681Z,0
2016-11-17T01:21:30.011Z,0
2016-11-17T01:22:29.405Z,0
2016-11-17T01:23:29.734Z,0
2016-11-17T01:24:29.444Z,0
2016-11-17T01:25:30.093Z,0
2016-11-17T01:26:29.478Z,0
2016-11-17T01:27:29.812Z,0
2016-11-17T01:28:30.468Z,0
2016-11-17T01:29:29.857Z,0
2016-11-17T01:30:30.190Z,0
2016-11-17T01:31:29.899Z,0
2016-11-17T01:32:30.276Z,0
2016-11-17T01:33:29.938Z,0
2016-11-17T01:34:29.641Z,0
2016-11-17T01:35:30.293Z,0
2016-11-17T01:36:29.986Z,0
2016-11-17T01:37:30.341Z,0
2016-11-17T01:38:30.346Z,0
2016-11-17T01:39:30.049Z,0
2016-11-17T01:40:30.381Z,0
2016-11-17T01:41:30.092Z,0
2016-11-17T01:42:30.144Z,0
2016-11-17T01:43:30.445Z,0
2016-11-17T01:44:30.154Z,0
2016-11-17T01:45:29.863Z,0
2016-11-17T01:46:30.185Z,0
2016-11-17T01:47:30.211Z,0
2016-11-17T01:48:30.554Z,0
2016-11-17T01:49:30.610Z,0
2016-11-17T01:50:30.269Z,0
2016-11-17T01:51:30.595Z,0
2016-11-17T01:52:30.625Z,0
2016-11-17T01:53:30.638Z,0
2016-11-17T01:54:30.347Z,0
2016-11-17T01:55:30.363Z,0
2016-11-17T01:56:30.710Z,0
2016-11-17T01:57:30.465Z,0
2016-11-17T01:58:30.426Z,0
2016-11-17T01:59:30.753Z,0
2016-11-17T02:00:30.147Z,0
2016-11-17T02:01:30.169Z,0
2016-11-17T02:02:30.815Z,0
2016-11-17T02:03:30.205Z,0
2016-11-17T02:04:30.861Z,0
2016-11-17T02:05:30.879Z,0
2016-11-17T02:06:30.896Z,0
2016-11-17T02:07:30.603Z,0
2016-11-17T02:08:30.624Z,0
2016-11-17T02:09:30.323Z,0
2016-11-17T02:10:30.660Z,0
2016-11-17T02:11:30.680Z,0
2016-11-17T02:12:30.747Z,0
2016-11-17T02:13:30.720Z,0
2016-11-17T02:14:30.737Z,0
2016-11-17T02:15:30.756Z,0
2016-11-17T02:16:31.093Z,0
2016-11-17T02:17:31.110Z,0
2016-11-17T02:18:30.501Z,0
2016-11-17T02:19:30.864Z,0
2016-11-17T02:20:30.901Z,0
2016-11-17T02:21:30.872Z,0
2016-11-17T02:22:30.932Z,0
2016-11-17T02:23:31.229Z,0
2016-11-17T02:24:30.931Z,0
2016-11-17T02:25:31.267Z,0
2016-11-17T02:26:31.284Z,0
2016-11-17T02:27:30.989Z,0
2016-11-17T02:28:31.324Z,0
2016-11-17T02:29:31.028Z,0
2016-11-17T02:30:30.737Z,0
2016-11-17T02:31:31.386Z,0
2016-11-17T02:32:31.126Z,0
2016-11-17T02:33:31.747Z,0
2016-11-17T02:34:31.439Z,0
2016-11-17T02:35:31.145Z,0
2016-11-17T02:36:31.796Z,0
2016-11-17T02:37:31.221Z,0
2016-11-17T02:38:31.204Z,0
2016-11-17T02:39:31.857Z,0
2016-11-17T02:40:31.252Z,0
2016-11-17T02:41:31.264Z,0
2016-11-17T02:42:31.000Z,0
2016-11-17T02:43:31.623Z,0
2016-11-17T02:44:31.649Z,0
2016-11-17T02:45:31.044Z,0
2016-11-17T02:46:31.054Z,0
2016-11-17T02:47:31.744Z,0
2016-11-17T02:48:31.429Z,0
2016-11-17T02:49:31.739Z,0
2016-11-17T02:50:31.461Z,0
2016-11-17T02:51:31.146Z,0
2016-11-17T02:52:31.830Z,0
2016-11-17T02:53:31.515Z,0
2016-11-17T02:54:31.526Z,0
2016-11-17T02:55:31.857Z,0
2016-11-17T02:56:31.573Z,0
2016-11-17T02:57:31.924Z,0
2016-11-17T02:58:31.916Z,0
2016-11-17T02:59:31.618Z,0
2016-11-17T03:00:31.643Z,0
2016-11-17T03:01:31.682Z,0
2016-11-17T03:02:31.986Z,0
2016-11-17T03:03:31.696Z,0
2016-11-17T03:04:31.716Z,0
2016-11-17T03:05:32.044Z,0
2016-11-17T03:06:31.761Z,0
2016-11-17T03:07:32.088Z,0
2016-11-17T03:08:31.798Z,0
2016-11-17T03:09:31.812Z,0
2016-11-17T03:10:31.558Z,0
2016-11-17T03:11:31.849Z,0
2016-11-17T03:12:31.864Z,0
2016-11-17T03:13:31.886Z,0
2016-11-17T03:14:31.599Z,0
2016-11-17T03:15:31.612Z,0
2016-11-17T03:16:31.634Z,0
2016-11-17T03:17:32.021Z,0
2016-11-17T03:18:31.985Z,0
2016-11-17T03:19:32.005Z,0
2016-11-17T03:20:32.674Z,0
2016-11-17T03:21:32.043Z,0
2016-11-17T03:22:32.379Z,0
2016-11-17T03:23:32.085Z,0
2016-11-17T03:24:32.140Z,0
2016-11-17T03:25:32.435Z,0
2016-11-17T03:26:32.146Z,0
2016-11-17T03:27:32.481Z,0
2016-11-17T03:28:31.867Z,0
2016-11-17T03:29:31.887Z,0
2016-11-17T03:30:31.908Z,0
2016-11-17T03:31:32.563Z,0
2016-11-17T03:32:32.260Z,0
2016-11-17T03:33:32.281Z,0
2016-11-17T03:34:32.616Z,0
2016-11-17T03:35:32.321Z,0
2016-11-17T03:36:32.651Z,0
2016-11-17T03:37:32.363Z,0
2016-11-17T03:38:32.384Z,0
2016-11-17T03:39:32.083Z,0
2016-11-17T03:40:32.728Z,0
2016-11-17T03:41:32.756Z,0
2016-11-17T03:42:32.456Z,0
2016-11-17T03:43:32.791Z,0
2016-11-17T03:44:32.492Z,0
2016-11-17T03:45:32.516Z,0
2016-11-17T03:46:32.905Z,0
2016-11-17T03:47:32.604Z,0
2016-11-17T03:48:32.256Z,0
2016-11-17T03:49:32.916Z,0
2016-11-17T03:50:32.301Z,0
2016-11-17T03:51:32.631Z,0
2016-11-17T03:52:32.649Z,0
2016-11-17T03:53:33.303Z,0
2016-11-17T03:54:32.708Z,0
2016-11-17T03:55:33.024Z,0
2016-11-17T03:56:32.425Z,0
2016-11-17T03:57:33.065Z,0
2016-11-17T03:58:32.772Z,0
2016-11-17T03:59:33.107Z,0
2016-11-17T04:00:33.498Z,0
2016-11-17T04:01:32.825Z,0
2016-11-17T04:02:32.869Z,0
2016-11-17T04:03:32.870Z,0
2016-11-17T04:04:33.199Z,0
2016-11-17T04:05:32.904Z,0
2016-11-17T04:06:32.615Z,0
2016-11-17T04:07:33.272Z,0
2016-11-17T04:08:32.983Z,0
2016-11-17T04:09:33.299Z,0
2016-11-17T04:10:33.002Z,0
2016-11-17T04:11:33.342Z,0
2016-11-17T04:12:32.726Z,0
2016-11-17T04:13:33.692Z,0
2016-11-17T04:14:33.401Z,0
2016-11-17T04:15:33.105Z,0
2016-11-17T04:16:33.194Z,0
2016-11-17T04:17:33.189Z,0
2016-11-17T04:18:33.159Z,0
2016-11-17T04:19:33.181Z,0
2016-11-17T04:20:33.250Z,0
2016-11-17T04:21:33.230Z,0
2016-11-17T04:22:33.561Z,0
2016-11-17T04:23:33.920Z,0
2016-11-17T04:24:33.597Z,0
2016-11-17T04:25:33.308Z,0
2016-11-17T04:26:33.320Z,0
2016-11-17T04:27:33.651Z,0
2016-11-17T04:28:33.984Z,0
2016-11-17T04:29:33.696Z,0
2016-11-17T04:30:33.390Z,0
2016-11-17T04:31:33.424Z,0
2016-11-17T04:32:33.806Z,0
2016-11-17T04:33:33.447Z,0
2016-11-17T04:34:33.799Z,0
2016-11-17T04:35:34.122Z,0
2016-11-17T04:36:33.512Z,0
2016-11-17T04:37:33.532Z,0
2016-11-17T04:38:33.544Z,0
2016-11-17T04:39:33.568Z,0
2016-11-17T04:40:33.907Z,0
2016-11-17T04:41:33.601Z,0
2016-11-17T04:42:33.956Z,0
2016-11-17T04:43:33.651Z,0
2016-11-17T04:44:33.345Z,0
2016-11-17T04:45:33.689Z,0
2016-11-17T04:46:33.706Z,0
2016-11-17T04:47:33.466Z,0
2016-11-17T04:48:34.057Z,0
2016-11-17T04:49:34.077Z,0
2016-11-17T04:50:34.094Z,0
2016-11-17T04:51:33.823Z,0
2016-11-17T04:52:33.828Z,0
2016-11-17T04:53:34.173Z,0
2016-11-17T04:54:33.545Z,0
2016-11-17T04:55:34.192Z,0
2016-11-17T04:56:34.217Z,0
2016-11-17T04:57:34.237Z,0
2016-11-17T04:58:33.938Z,0
2016-11-17T04:59:34.274Z,0
2016-11-17T05:00:48.869Z,0
2016-11-17T05:01:34.013Z,0
2016-11-17T05:02:34.380Z,0
2016-11-17T05:03:34.038Z,0
2016-11-17T05:04:34.378Z,0
2016-11-17T05:05:34.391Z,0
2016-11-17T05:06:34.409Z,0
2016-11-17T05:07:34.432Z,0
2016-11-17T05:08:34.774Z,0
2016-11-17T05:09:34.157Z,0
2016-11-17T05:10:34.171Z,0
2016-11-17T05:11:34.192Z,0
2016-11-17T05:12:34.529Z,0
2016-11-17T05:13:33.948Z,0
2016-11-17T05:14:34.566Z,0
2016-11-17T05:15:34.271Z,0
2016-11-17T05:16:34.292Z,0
2016-11-17T05:17:34.692Z,0
2016-11-17T05:18:34.959Z,0
2016-11-17T05:19:34.668Z,0
2016-11-17T05:20:34.680Z,0
2016-11-17T05:21:34.748Z,0
2016-11-17T05:22:35.034Z,0
2016-11-17T05:23:34.423Z,0
2016-11-17T05:24:34.449Z,0
2016-11-17T05:25:34.464Z,0
2016-11-17T05:26:34.811Z,0
2016-11-17T05:27:34.869Z,0
2016-11-17T05:28:34.837Z,0
2016-11-17T05:29:34.854Z,0
2016-11-17T05:30:34.878Z,0
2016-11-17T05:31:34.578Z,0
2016-11-17T05:32:34.942Z,0
2016-11-17T05:33:34.322Z,0
2016-11-17T05:34:34.957Z,0
2016-11-17T05:35:34.655Z,0
2016-11-17T05:36:34.992Z,0
2016-11-17T05:37:34.696Z,0
2016-11-17T05:38:34.403Z,0
2016-11-17T05:39:35.059Z,0
2016-11-17T05:40:35.076Z,0
2016-11-17T05:41:34.781Z,0
2016-11-17T05:42:34.845Z,0
2016-11-17T05:43:35.129Z,0
2016-11-17T05:44:34.551Z,0
2016-11-17T05:45:34.859Z,0
2016-11-17T05:46:34.895Z,0
2016-11-17T05:47:34.889Z,0
2016-11-17T05:48:34.597Z,0
2016-11-17T05:49:34.955Z,0
2016-11-17T05:50:34.993Z,0
2016-11-17T05:51:34.971Z,0
2016-11-17T05:52:34.991Z,0
2016-11-17T05:53:35.009Z,0
2016-11-17T05:54:35.382Z,0
2016-11-17T05:55:35.098Z,0
2016-11-17T05:56:35.420Z,0
2016-11-17T05:57:35.085Z,0
2016-11-17T05:58:35.438Z,0
2016-11-17T05:59:35.445Z,0
2016-11-17T06:00:34.831Z,0
2016-11-17T06:01:35.174Z,0
2016-11-17T06:02:35.184Z,0
2016-11-17T06:03:34.919Z,0
2016-11-17T06:04:35.228Z,0
2016-11-17T06:05:35.242Z,0
2016-11-17T06:06:35.586Z,0
2016-11-17T06:07:35.372Z,0
2016-11-17T06:08:35.303Z,0
2016-11-17T06:09:35.665Z,0
2016-11-17T06:10:35.089Z,0
2016-11-17T06:11:35.360Z,0
2016-11-17T06:12:35.400Z,0
2016-11-17T06:13:36.027Z,0
2016-11-17T06:14:35.732Z,0
2016-11-17T06:15:35.754Z,4
2016-11-17T06:16:35.491Z,4
2016-11-17T06:17:35.796Z,0
2016-11-17T06:18:35.182Z,0
2016-11-17T06:19:35.525Z,4
2016-11-17T06:20:35.863Z,4
2016-11-17T06:21:35.557Z,0
2016-11-17T06:22:35.262Z,4
2016-11-17T06:23:35.595Z,4
2016-11-17T06:24:35.615Z,4
2016-11-17T06:25:35.665Z,0
2016-11-17T06:26:35.655Z,4
2016-11-17T06:27:35.674Z,4
2016-11-17T06:28:35.375Z,0
2016-11-17T06:29:36.067Z,0
2016-11-17T06:30:36.084Z,4
2016-11-17T06:31:35.786Z,4
2016-11-17T06:32:36.104Z,4
2016-11-17T06:33:35.478Z,4
2016-11-17T06:34:36.125Z,4
2016-11-17T06:35:36.166Z,8
2016-11-17T06:36:35.905Z,4
2016-11-17T06:37:36.183Z,8
2016-11-17T06:38:36.525Z,4
2016-11-17T06:39:36.539Z,4
2016-11-17T06:40:36.555Z,8
2016-11-17T06:41:35.945Z,8
2016-11-17T06:42:35.646Z,8
2016-11-17T06:43:36.015Z,8
2016-11-17T06:44:36.009Z,8
2016-11-17T06:45:35.704Z,12
2016-11-17T06:46:35.732Z,12
2016-11-17T06:47:36.698Z,12
2016-11-17T06:48:36.395Z,16
2016-11-17T06:49:36.140Z,16
2016-11-17T06:50:36.119Z,20
2016-11-17T06:51:36.140Z,24
2016-11-17T06:52:36.787Z,24
2016-11-17T06:53:36.175Z,24
2016-11-17T06:54:36.198Z,24
2016-11-17T06:55:36.532Z,28
2016-11-17T06:56:36.236Z,24
2016-11-17T06:57:36.621Z,28
2016-11-17T06:58:36.306Z,28
2016-11-17T06:59:36.330Z,28
2016-11-17T07:00:36.627Z,32
2016-11-17T07:01:36.013Z,32
2016-11-17T07:02:36.666Z,36
2016-11-17T07:03:36.404Z,40
2016-11-17T07:04:36.075Z,40
2016-11-17T07:05:37.043Z,40
2016-11-17T07:06:36.422Z,36
2016-11-17T07:07:37.165Z,32
2016-11-17T07:08:36.783Z,32
2016-11-17T07:09:36.805Z,32
2016-11-17T07:10:36.822Z,32
2016-11-17T07:11:36.843Z,28
2016-11-17T07:12:36.859Z,32
2016-11-17T07:13:36.562Z,32
2016-11-17T07:14:36.901Z,32
2016-11-17T07:15:36.915Z,36
2016-11-17T07:16:36.343Z,40
2016-11-17T07:17:36.671Z,40
2016-11-17T07:18:36.659Z,44
2016-11-17T07:19:36.681Z,48
2016-11-17T07:20:36.700Z,48
2016-11-17T07:21:36.431Z,48
2016-11-17T07:22:37.362Z,48
2016-11-17T07:23:36.752Z,44
2016-11-17T07:24:37.090Z,48
2016-11-17T07:25:36.493Z,44
2016-11-17T07:26:37.138Z,40
2016-11-17T07:27:36.834Z,40
2016-11-17T07:28:36.847Z,40
2016-11-17T07:29:36.873Z,44
2016-11-17T07:30:36.575Z,40
2016-11-17T07:31:36.920Z,36
2016-11-17T07:32:36.939Z,36
2016-11-17T07:33:36.967Z,28
2016-11-17T07:34:37.274Z,28
2016-11-17T07:35:37.354Z,24
2016-11-17T07:36:37.031Z,28
2016-11-17T07:37:37.079Z,28
2016-11-17T07:38:37.362Z,32
2016-11-17T07:39:37.387Z,32
2016-11-17T07:40:36.778Z,36
2016-11-17T07:41:37.101Z,36
2016-11-17T07:42:36.806Z,36
2016-11-17T07:43:37.454Z,32
2016-11-17T07:44:36.841Z,32
2016-11-17T07:45:37.174Z,32
2016-11-17T07:46:37.827Z,32
2016-11-17T07:47:36.929Z,36
2016-11-17T07:48:37.554Z,32
2016-11-17T07:49:36.941Z,32
2016-11-17T07:50:37.590Z,36
2016-11-17T07:51:37.625Z,44
2016-11-17T07:52:37.364Z,48
2016-11-17T07:53:37.658Z,52
2016-11-17T07:54:37.676Z,52
2016-11-17T07:55:37.371Z,48
2016-11-17T07:56:37.074Z,44
2016-11-17T07:57:37.402Z,44
2016-11-17T07:58:37.772Z,44
2016-11-17T07:59:37.779Z,44
2016-11-17T08:00:37.783Z,44
2016-11-17T08:01:37.516Z,48
2016-11-17T08:02:37.206Z,52
2016-11-17T08:03:37.850Z,48
2016-11-17T08:04:37.224Z,44
2016-11-17T08:05:37.880Z,48
2016-11-17T08:06:37.591Z,48
2016-11-17T08:07:37.919Z,52
2016-11-17T08:08:38.302Z,56
2016-11-17T08:09:37.650Z,60
2016-11-17T08:10:37.975Z,68
2016-11-17T08:11:37.677Z,72
2016-11-17T08:12:37.756Z,72
2016-11-17T08:13:38.053Z,76
2016-11-17T08:14:37.745Z,80
2016-11-17T08:15:37.766Z,80
2016-11-17T08:16:38.401Z,84
2016-11-17T08:17:37.484Z,84
2016-11-17T08:18:37.811Z,88
2016-11-17T08:19:37.826Z,92
2016-11-17T08:20:37.531Z,96
2016-11-17T08:21:37.870Z,108
2016-11-17T08:22:37.891Z,112
2016-11-17T08:23:38.225Z,120
2016-11-17T08:24:38.244Z,136
2016-11-17T08:25:37.637Z,160
2016-11-17T08:26:37.976Z,160
2016-11-17T08:27:38.618Z,164
2016-11-17T08:28:38.321Z,164
2016-11-17T08:29:38.036Z,156
2016-11-17T08:30:38.048Z,148
2016-11-17T08:31:37.745Z,136
2016-11-17T08:32:37.762Z,132
2016-11-17T08:33:38.099Z,140
2016-11-17T08:34:38.438Z,160
2016-11-17T08:35:38.177Z,184
2016-11-17T08:36:38.183Z,208
2016-11-17T08:37:38.551Z,252
2016-11-17T08:38:38.551Z,316
2016-11-17T08:39:38.538Z,408
2016-11-17T08:40:38.236Z,564
2016-11-17T08:41:37.941Z,780
2016-11-17T08:42:38.278Z,908
2016-11-17T08:43:38.643Z,1112
2016-11-17T08:44:38.632Z,1128
2016-11-17T08:45:38.016Z,1304
2016-11-17T08:46:38.389Z,932
2016-11-17T08:47:38.062Z,716
2016-11-17T08:48:38.431Z,616
2016-11-17T08:49:38.414Z,512
2016-11-17T08:50:39.090Z,412
2016-11-17T08:51:39.079Z,376
2016-11-17T08:52:38.158Z,348
2016-11-17T08:53:38.809Z,308
2016-11-17T08:54:38.827Z,284
2016-11-17T08:55:38.531Z,280
2016-11-17T08:56:38.240Z,288
2016-11-17T08:57:39.212Z,296
2016-11-17T08:58:38.589Z,304
2016-11-17T08:59:38.607Z,304
2016-11-17T09:00:38.627Z,292
2016-11-17T09:01:38.965Z,272
2016-11-17T09:02:38.673Z,260
2016-11-17T09:03:38.686Z,248
2016-11-17T09:04:38.710Z,232
2016-11-17T09:05:38.742Z,220
2016-11-17T09:06:38.748Z,216
2016-11-17T09:07:39.084Z,216
2016-11-17T09:08:39.104Z,212
2016-11-17T09:09:38.808Z,204
2016-11-17T09:10:39.146Z,200
2016-11-17T09:11:39.475Z,200
2016-11-17T09:12:39.194Z,200
2016-11-17T09:13:39.524Z,196
2016-11-17T09:14:38.592Z,196
2016-11-17T09:15:38.632Z,196
2016-11-17T09:16:39.583Z,192
2016-11-17T09:17:38.664Z,192
2016-11-17T09:18:39.309Z,204
2016-11-17T09:19:39.006Z,220
2016-11-17T09:20:39.027Z,236
2016-11-17T09:21:39.050Z,272
2016-11-17T09:22:38.803Z,312
2016-11-17T09:23:39.103Z,328
2016-11-17T09:24:38.793Z,316
2016-11-17T09:25:39.141Z,300
2016-11-17T09:26:39.145Z,280
2016-11-17T09:27:39.167Z,260
2016-11-17T09:28:39.190Z,264
2016-11-17T09:29:39.844Z,264
2016-11-17T09:30:39.228Z,264
2016-11-17T09:31:39.565Z,248
2016-11-17T09:32:39.273Z,252
2016-11-17T09:33:39.626Z,268
2016-11-17T09:34:39.348Z,268
2016-11-17T09:35:39.330Z,260
2016-11-17T09:36:39.355Z,244
2016-11-17T09:37:39.696Z,232
2016-11-17T09:38:39.706Z,208
2016-11-17T09:39:39.729Z,192
2016-11-17T09:40:39.466Z,188
2016-11-17T09:41:40.081Z,204
2016-11-17T09:42:39.783Z,220
2016-11-17T09:43:39.489Z,248
2016-11-17T09:44:39.512Z,260
2016-11-17T09:45:39.216Z,264
2016-11-17T09:46:39.555Z,280
2016-11-17T09:47:39.287Z,284
2016-11-17T09:48:39.589Z,272
2016-11-17T09:49:39.611Z,236
2016-11-17T09:50:39.319Z,196
2016-11-17T09:51:39.970Z,172
2016-11-17T09:52:39.668Z,168
2016-11-17T09:53:39.375Z,176
2016-11-17T09:54:39.792Z,180
2016-11-17T09:55:40.369Z,184
2016-11-17T09:56:40.387Z,192
2016-11-17T09:57:40.099Z,204
2016-11-17T09:58:39.799Z,208
2016-11-17T09:59:39.497Z,220
2016-11-17T10:00:39.836Z,220
2016-11-17T10:01:39.571Z,216
2016-11-17T10:03:39.899Z,232
2016-11-17T10:04:39.931Z,236
2016-11-17T10:05:39.939Z,256
2016-11-17T10:06:40.296Z,296
2016-11-17T10:07:39.989Z,356
2016-11-17T10:08:40.009Z,428
2016-11-17T10:09:40.018Z,504
2016-11-17T10:10:39.740Z,544
2016-11-17T10:11:40.380Z,524
2016-11-17T10:12:40.080Z,524
2016-11-17T10:13:39.783Z,480
2016-11-17T10:14:40.124Z,416
2016-11-17T10:15:40.458Z,372
2016-11-17T10:16:40.171Z,356
2016-11-17T10:17:39.886Z,332
2016-11-17T10:18:40.531Z,320
2016-11-17T10:19:40.539Z,320
2016-11-17T10:20:40.562Z,340
2016-11-17T10:21:40.590Z,360
2016-11-17T10:22:40.169Z,376
2016-11-17T10:23:40.305Z,376
2016-11-17T10:24:40.739Z,368
2016-11-17T10:25:40.665Z,336
2016-11-17T10:26:40.689Z,308
2016-11-17T10:27:40.075Z,296
2016-11-17T10:28:40.095Z,288
2016-11-17T10:29:40.428Z,284
2016-11-17T10:30:40.449Z,300
2016-11-17T10:31:40.789Z,324
2016-11-17T10:32:40.861Z,328
2016-11-17T10:33:40.828Z,324
2016-11-17T10:34:41.163Z,308
2016-11-17T10:35:41.184Z,300
2016-11-17T10:36:40.577Z,292
2016-11-17T10:37:40.593Z,284
2016-11-17T10:38:55.191Z,280
2016-11-17T10:39:40.950Z,292
2016-11-17T10:40:40.343Z,308
2016-11-17T10:41:41.030Z,296
2016-11-17T10:42:40.394Z,264
2016-11-17T10:43:40.408Z,264
2016-11-17T10:44:41.079Z,284
2016-11-17T10:45:41.394Z,304
2016-11-17T10:46:40.825Z,304
2016-11-17T10:47:40.801Z,304
2016-11-17T10:48:40.825Z,292
2016-11-17T10:49:41.650Z,284
2016-11-17T10:50:40.862Z,272
2016-11-17T10:51:41.552Z,260
2016-11-17T10:52:40.594Z,252
2016-11-17T10:53:40.931Z,248
2016-11-17T10:54:41.262Z,232
2016-11-17T10:55:41.291Z,212
2016-11-17T10:56:40.998Z,196
2016-11-17T10:57:40.694Z,168
2016-11-17T10:58:41.033Z,144
2016-11-17T10:59:41.054Z,128
2016-11-17T11:00:41.392Z,120
2016-11-17T11:01:41.476Z,128
2016-11-17T11:02:41.429Z,148
2016-11-17T11:03:41.769Z,180
2016-11-17T11:04:41.162Z,216
2016-11-17T11:05:41.208Z,232
2016-11-17T11:06:41.196Z,232
2016-11-17T11:07:40.925Z,208
2016-11-17T11:08:41.237Z,172
2016-11-17T11:09:40.961Z,148
2016-11-17T11:10:41.286Z,136
2016-11-17T11:11:41.321Z,128
2016-11-17T11:12:41.319Z,124
2016-11-17T11:13:41.342Z,140
2016-11-17T11:14:41.365Z,176
2016-11-17T11:15:41.701Z,208
2016-11-17T11:16:41.742Z,220
2016-11-17T11:17:41.447Z,220
2016-11-17T11:18:41.448Z,224
2016-11-17T11:19:41.811Z,264
2016-11-17T11:20:41.806Z,296
2016-11-17T11:21:41.507Z,304
2016-11-17T11:22:41.266Z,288
2016-11-17T11:23:41.233Z,276
2016-11-17T11:24:42.217Z,272
2016-11-17T11:25:42.223Z,288
2016-11-17T11:26:41.616Z,320
2016-11-17T11:27:41.710Z,320
2016-11-17T11:28:41.654Z,308
2016-11-17T11:29:41.987Z,284
2016-11-17T11:30:42.015Z,244
2016-11-17T11:31:41.755Z,220
2016-11-17T11:32:41.737Z,196
2016-11-17T11:33:41.437Z,196
2016-11-17T11:34:42.111Z,196
2016-11-17T11:35:41.483Z,208
2016-11-17T11:36:41.819Z,220
2016-11-17T11:37:42.205Z,244
2016-11-17T11:38:41.545Z,284
2016-11-17T11:39:41.917Z,304
2016-11-17T11:40:41.901Z,288
2016-11-17T11:41:41.924Z,232
2016-11-17T11:42:42.258Z,216
2016-11-17T11:43:41.679Z,232
2016-11-17T11:44:42.302Z,248
2016-11-17T11:45:42.006Z,232
2016-11-17T11:46:42.340Z,216
2016-11-17T11:47:42.413Z,200
2016-11-17T11:48:42.069Z,184
2016-11-17T11:49:42.739Z,180
2016-11-17T11:50:41.887Z,184
2016-11-17T11:51:42.451Z,192
2016-11-17T11:52:42.150Z,192
2016-11-17T11:53:42.171Z,188
2016-11-17T11:54:42.525Z,188
2016-11-17T11:55:42.229Z,196
2016-11-17T11:56:42.230Z,216
2016-11-17T11:57:42.306Z,256
2016-11-17T11:58:42.275Z,280
2016-11-17T11:59:42.930Z,268
2016-11-17T12:00:41.996Z,240
2016-11-17T12:01:42.651Z,216
2016-11-17T12:02:42.672Z,204
2016-11-17T12:03:42.379Z,192
2016-11-17T12:04:43.046Z,188
2016-11-17T12:05:42.756Z,184
2016-11-17T12:06:43.065Z,184
2016-11-17T12:07:42.461Z,184
2016-11-17T12:08:42.851Z,176
2016-11-17T12:09:43.138Z,160
2016-11-17T12:10:42.521Z,156
2016-11-17T12:11:42.567Z,160
2016-11-17T12:12:42.558Z,164
2016-11-17T12:13:42.895Z,172
2016-11-17T12:14:42.917Z,184
2016-11-17T12:15:42.628Z,200
2016-11-17T12:16:42.636Z,200
2016-11-17T12:17:42.980Z,192
2016-11-17T12:18:43.311Z,176
2016-11-17T12:19:42.711Z,168
2016-11-17T12:20:42.726Z,168
2016-11-17T12:21:43.375Z,176
2016-11-17T12:22:42.760Z,188
2016-11-17T12:23:42.789Z,192
2016-11-17T12:24:43.125Z,192
2016-11-17T12:25:43.456Z,192
2016-11-17T12:26:43.190Z,196
2016-11-17T12:27:43.564Z,204
2016-11-17T12:28:42.889Z,212
2016-11-17T12:29:43.225Z,212
2016-11-17T12:30:43.287Z,220
2016-11-17T12:31:42.629Z,240
2016-11-17T12:32:42.759Z,272
2016-11-17T12:33:43.010Z,308
2016-11-17T12:34:43.671Z,328
2016-11-17T12:35:43.376Z,336
2016-11-17T12:36:43.365Z,320
2016-11-17T12:37:43.383Z,292
2016-11-17T12:38:43.430Z,252
2016-11-17T12:39:43.116Z,196
2016-11-17T12:40:43.135Z,168
2016-11-17T12:41:42.843Z,160
2016-11-17T12:42:43.175Z,176
2016-11-17T12:43:43.200Z,188
2016-11-17T12:44:43.528Z,200
2016-11-17T12:45:43.549Z,204
2016-11-17T12:46:43.593Z,216
2016-11-17T12:47:43.332Z,224
2016-11-17T12:48:43.615Z,212
2016-11-17T12:49:43.632Z,196
2016-11-17T12:50:43.348Z,184
2016-11-17T12:51:43.381Z,176
2016-11-17T12:52:43.059Z,172
2016-11-17T12:53:43.084Z,180
2016-11-17T12:54:43.735Z,184
2016-11-17T12:55:43.759Z,176
2016-11-17T12:56:43.777Z,188
2016-11-17T12:57:43.844Z,200
2016-11-17T12:58:43.188Z,204
2016-11-17T12:59:43.520Z,208
2016-11-17T13:00:43.551Z,232
2016-11-17T13:01:43.563Z,244
2016-11-17T13:02:43.583Z,256
2016-11-17T13:03:43.603Z,244
2016-11-17T13:04:43.935Z,224
2016-11-17T13:05:43.645Z,196
2016-11-17T13:06:43.383Z,184
2016-11-17T13:07:43.374Z,172
2016-11-17T13:08:43.705Z,160
2016-11-17T13:09:43.417Z,164
2016-11-17T13:10:43.747Z,172
2016-11-17T13:11:44.080Z,196
2016-11-17T13:12:43.838Z,228
2016-11-17T13:13:43.825Z,260
2016-11-17T13:14:44.464Z,280
2016-11-17T13:15:44.173Z,276
2016-11-17T13:16:43.884Z,268
2016-11-17T13:17:44.212Z,256
2016-11-17T13:18:43.917Z,220
2016-11-17T13:19:44.262Z,200
2016-11-17T13:20:44.290Z,164
2016-11-17T13:21:44.313Z,160
2016-11-17T13:22:44.009Z,164
2016-11-17T13:23:44.345Z,168
2016-11-17T13:24:44.371Z,172
2016-11-17T13:25:44.069Z,164
2016-11-17T13:26:44.093Z,168
2016-11-17T13:27:44.147Z,168
2016-11-17T13:28:44.138Z,180
2016-11-17T13:29:44.144Z,192
2016-11-17T13:30:44.487Z,204
2016-11-17T13:31:44.834Z,200
2016-11-17T13:32:44.521Z,220
2016-11-17T13:33:43.915Z,244
2016-11-17T13:34:44.560Z,240
2016-11-17T13:35:43.954Z,204
2016-11-17T13:36:44.303Z,176
2016-11-17T13:37:44.309Z,160
2016-11-17T13:38:44.329Z,164
2016-11-17T13:39:44.054Z,172
2016-11-17T13:40:44.375Z,176
2016-11-17T13:41:44.392Z,184
2016-11-17T13:42:45.051Z,192
2016-11-17T13:43:44.459Z,200
2016-11-17T13:44:44.491Z,188
2016-11-17T13:45:44.485Z,176
2016-11-17T13:46:44.495Z,176
2016-11-17T13:47:44.198Z,176
2016-11-17T13:48:44.554Z,184
2016-11-17T13:49:44.866Z,224
2016-11-17T13:50:44.574Z,264
2016-11-17T13:51:45.238Z,336
2016-11-17T13:52:44.613Z,452
2016-11-17T13:53:44.636Z,264
2016-11-17T13:54:44.661Z,240
2016-11-17T13:55:44.679Z,748
2016-11-17T13:56:44.709Z,268
2016-11-17T13:57:44.717Z,200
2016-11-17T13:58:45.388Z,172
2016-11-17T13:59:44.774Z,164
2016-11-17T14:00:45.100Z,160
2016-11-17T14:01:44.801Z,168
2016-11-17T14:02:44.566Z,168
2016-11-17T14:03:45.161Z,164
2016-11-17T14:04:44.860Z,156
2016-11-17T14:05:45.199Z,160
2016-11-17T14:06:44.903Z,168
2016-11-17T14:07:45.241Z,176
2016-11-17T14:08:45.260Z,180
2016-11-17T14:09:45.288Z,188
2016-11-17T14:10:44.987Z,192
2016-11-17T14:11:45.325Z,192
2016-11-17T14:12:45.084Z,192
2016-11-17T14:13:45.683Z,184
2016-11-17T14:14:45.389Z,180
2016-11-17T14:15:45.407Z,176
2016-11-17T14:16:45.151Z,180
2016-11-17T14:17:44.863Z,184
2016-11-17T14:18:45.172Z,176